createdAt,value
2023-03-08T00:02:23.417Z,6.43
2023-03-08T00:04:56.222Z,6.65
2023-03-08T00:07:29.153Z,6.28
2023-03-08T00:10:01.752Z,7.50
2023-03-08T00:12:34.313Z,7.10
2023-03-08T00:15:07.608Z,7.10
2023-03-08T00:17:40.573Z,7.03
2023-03-08T00:20:14.009Z,6.88
2023-03-08T00:22:46.543Z,7.80
2023-03-08T00:25:19.234Z,7.75
2023-03-08T00:27:51.826Z,6.85
2023-03-08T00:30:24.340Z,6.82
2023-03-08T00:32:56.859Z,7.55
2023-03-08T00:35:29.428Z,7.78
2023-03-08T00:38:02.012Z,7.70
2023-03-08T00:40:34.481Z,6.32
2023-03-08T00:43:07.029Z,7.05
2023-03-08T00:45:39.559Z,7.93
2023-03-08T00:48:12.517Z,8.20
2023-03-08T00:50:45.894Z,6.95
2023-03-08T00:53:19.048Z,7.55
2023-03-08T00:55:58.782Z,6.88
2023-03-08T00:58:32.046Z,7.97
2023-03-08T01:01:06.342Z,7.70
2023-03-08T01:03:38.873Z,8.20
2023-03-08T01:06:15.016Z,7.20
2023-03-08T01:08:47.715Z,7.85
2023-03-08T01:11:27.125Z,8.35
2023-03-08T01:13:59.665Z,10.15
2023-03-08T01:16:33.661Z,8.75
2023-03-08T01:19:06.276Z,10.10
2023-03-08T01:21:38.934Z,7.47
2023-03-08T01:24:11.446Z,7.90
2023-03-08T01:26:44.029Z,9.57
2023-03-08T01:29:16.584Z,11.07
2023-03-08T01:31:49.148Z,9.15
2023-03-08T01:34:21.647Z,8.55
2023-03-08T01:36:54.148Z,9.32
2023-03-08T01:39:26.695Z,8.95
2023-03-08T01:41:59.208Z,9.38
2023-03-08T01:44:55.235Z,9.70
2023-03-08T01:47:36.039Z,8.60
2023-03-08T01:50:13.452Z,9.18
2023-03-08T01:52:53.484Z,10.20
2023-03-08T01:55:26.278Z,10.32
2023-03-08T01:57:59.369Z,8.82
2023-03-08T02:00:31.934Z,9.85
2023-03-08T02:03:10.166Z,9.38
2023-03-08T02:05:44.365Z,9.82
2023-03-08T02:08:17.520Z,9.55
2023-03-08T02:10:50.665Z,10.18
2023-03-08T02:13:23.340Z,11.90
2023-03-08T02:15:58.901Z,10.40
2023-03-08T02:18:31.457Z,9.85
2023-03-08T02:21:04.052Z,9.25
2023-03-08T02:23:36.509Z,9.85
2023-03-08T02:26:09.242Z,9.07
2023-03-08T02:28:42.890Z,9.20
2023-03-08T02:31:16.264Z,10.80
2023-03-08T02:33:48.817Z,8.85
2023-03-08T02:36:21.421Z,9.77
2023-03-08T02:38:54.058Z,9.30
2023-03-08T02:41:26.743Z,9.02
2023-03-08T02:43:59.263Z,8.98
2023-03-08T02:46:31.783Z,9.52
2023-03-08T02:49:04.324Z,9.60
2023-03-08T02:51:36.857Z,10.45
2023-03-08T02:54:09.488Z,9.68
2023-03-08T02:56:42.126Z,8.45
2023-03-08T02:59:14.838Z,8.82
2023-03-08T03:01:47.542Z,9.60
2023-03-08T03:04:20.075Z,8.73
2023-03-08T03:06:52.528Z,9.55
2023-03-08T03:09:25.454Z,9.10
2023-03-08T03:11:57.930Z,8.70
2023-03-08T03:14:30.548Z,9.25
2023-03-08T03:17:03.079Z,9.55
2023-03-08T03:19:37.075Z,9.15
2023-03-08T03:22:09.568Z,10.07
2023-03-08T03:24:42.214Z,9.77
2023-03-08T03:27:14.810Z,8.85
2023-03-08T03:29:48.305Z,9.43
2023-03-08T03:32:20.964Z,9.23
2023-03-08T03:34:53.554Z,10.63
2023-03-08T03:37:26.170Z,10.98
2023-03-08T03:39:58.941Z,8.82
2023-03-08T03:42:31.492Z,10.60
2023-03-08T03:45:04.587Z,10.65
2023-03-08T03:47:37.153Z,11.27
2023-03-08T03:50:10.656Z,10.05
2023-03-08T03:52:43.262Z,11.00
2023-03-08T03:55:15.904Z,10.07
2023-03-08T03:57:48.511Z,9.50
2023-03-08T04:00:22.147Z,10.40
2023-03-08T04:02:54.730Z,9.93
2023-03-08T04:05:27.356Z,9.20
2023-03-08T04:08:00.010Z,9.02
2023-03-08T04:10:32.760Z,9.48
2023-03-08T04:13:05.588Z,8.52
2023-03-08T04:15:38.106Z,7.75
2023-03-08T04:18:10.651Z,7.22
2023-03-08T04:20:45.703Z,8.00
2023-03-08T04:23:18.244Z,7.05
2023-03-08T04:25:50.916Z,6.88
2023-03-08T04:28:23.593Z,7.70
2023-03-08T04:30:57.041Z,6.38
2023-03-08T04:33:29.542Z,7.20
2023-03-08T04:36:02.142Z,7.65
2023-03-08T04:38:34.803Z,7.57
2023-03-08T04:41:13.736Z,8.43
2023-03-08T04:43:52.973Z,6.55
2023-03-08T04:46:28.101Z,6.63
2023-03-08T04:49:00.685Z,7.63
2023-03-08T04:51:33.247Z,6.28
2023-03-08T04:54:06.084Z,6.05
2023-03-08T04:56:38.607Z,5.97
2023-03-08T04:59:11.110Z,5.18
2023-03-08T05:01:43.801Z,5.22
2023-03-08T05:04:16.404Z,5.30
2023-03-08T05:06:49.164Z,5.65
2023-03-08T05:09:21.748Z,5.55
2023-03-08T05:11:54.293Z,5.22
2023-03-08T05:14:26.915Z,5.90
2023-03-08T05:17:02.091Z,5.28
2023-03-08T05:19:35.035Z,6.25
2023-03-08T05:22:07.559Z,5.43
2023-03-08T05:24:43.837Z,5.70
2023-03-08T05:27:16.538Z,5.72
2023-03-08T05:29:51.916Z,5.68
2023-03-08T05:32:24.415Z,5.95
2023-03-08T05:34:56.941Z,4.82
2023-03-08T05:37:29.485Z,4.72
2023-03-08T05:40:06.166Z,6.10
2023-03-08T05:42:38.664Z,5.32
2023-03-08T05:45:11.693Z,3.97
2023-03-08T05:47:45.026Z,4.18
2023-03-08T05:50:17.762Z,3.90
2023-03-08T05:52:50.252Z,4.05
2023-03-08T05:55:22.824Z,4.60
2023-03-08T05:57:55.316Z,3.97
2023-03-08T06:00:27.956Z,3.60
2023-03-08T06:03:04.033Z,3.05
2023-03-08T06:05:37.074Z,2.83
2023-03-08T06:08:09.690Z,3.22
2023-03-08T06:10:42.196Z,2.95
2023-03-08T06:13:14.760Z,3.05
2023-03-08T06:15:47.577Z,2.95
2023-03-08T06:18:20.156Z,3.13
2023-03-08T06:21:09.187Z,3.03
2023-03-08T06:23:45.476Z,2.75
2023-03-08T06:26:18.344Z,2.42
2023-03-08T06:28:51.059Z,2.35
2023-03-08T06:31:23.869Z,2.75
2023-03-08T06:33:56.573Z,3.03
2023-03-08T06:36:29.148Z,2.75
2023-03-08T06:39:02.233Z,1.95
2023-03-08T06:41:34.893Z,2.85
2023-03-08T06:44:07.640Z,2.30
2023-03-08T06:46:40.412Z,2.63
2023-03-08T06:49:13.006Z,2.08
2023-03-08T06:51:45.666Z,2.00
2023-03-08T06:54:18.480Z,2.17
2023-03-08T06:56:51.133Z,1.80
2023-03-08T06:59:23.730Z,1.73
2023-03-08T07:01:56.375Z,1.20
2023-03-08T07:04:29.120Z,1.30
2023-03-08T07:07:02.107Z,1.65
2023-03-08T07:09:35.339Z,1.80
2023-03-08T07:12:08.367Z,1.38
2023-03-08T07:14:41.149Z,1.48
2023-03-08T07:17:13.768Z,1.10
2023-03-08T07:19:46.281Z,1.40
2023-03-08T07:22:19.069Z,0.80
2023-03-08T07:24:51.743Z,1.60
2023-03-08T07:27:24.924Z,1.05
2023-03-08T07:29:57.775Z,1.17
2023-03-08T07:32:30.573Z,1.30
2023-03-08T07:35:03.534Z,1.52
2023-03-08T07:37:37.433Z,1.65
2023-03-08T07:40:12.555Z,1.13
2023-03-08T07:42:45.356Z,1.20
2023-03-08T07:45:18.757Z,1.40
2023-03-08T07:47:55.021Z,1.92
2023-03-08T07:50:27.641Z,1.95
2023-03-08T07:53:00.497Z,1.75
2023-03-08T07:55:33.129Z,2.60
2023-03-08T07:58:06.185Z,2.28
2023-03-08T08:00:38.737Z,1.92
2023-03-08T08:03:11.513Z,2.55
2023-03-08T08:05:44.290Z,2.40
2023-03-08T08:08:17.103Z,2.72
2023-03-08T08:10:49.716Z,2.17
2023-03-08T08:13:22.433Z,2.40
2023-03-08T08:16:02.657Z,2.50
2023-03-08T08:18:36.315Z,2.83
2023-03-08T08:21:13.396Z,2.78
2023-03-08T08:23:47.670Z,2.75
2023-03-08T08:26:22.112Z,3.13
2023-03-08T08:28:55.460Z,2.88
2023-03-08T08:31:33.084Z,2.88
2023-03-08T08:34:05.678Z,3.05
2023-03-08T08:36:38.419Z,3.00
2023-03-08T08:39:11.019Z,3.20
2023-03-08T08:41:43.689Z,2.60
2023-03-08T08:44:16.623Z,2.35
2023-03-08T08:46:49.333Z,3.05
2023-03-08T08:49:21.921Z,2.47
2023-03-08T08:51:54.463Z,2.33
2023-03-08T08:54:27.124Z,2.88
2023-03-08T08:57:00.301Z,2.92
2023-03-08T08:59:33.538Z,2.90
2023-03-08T09:02:07.430Z,3.80
2023-03-08T09:04:40.474Z,2.60
2023-03-08T09:07:13.364Z,3.13
2023-03-08T09:09:46.402Z,3.40
2023-03-08T09:12:21.137Z,3.30
2023-03-08T09:14:53.775Z,3.88
2023-03-08T09:17:26.523Z,4.65
2023-03-08T09:19:59.716Z,4.30
2023-03-08T09:22:32.747Z,4.07
2023-03-08T09:25:07.752Z,4.10
2023-03-08T09:27:42.717Z,4.40
2023-03-08T09:30:17.721Z,4.60
2023-03-08T09:32:50.550Z,4.03
2023-03-08T09:35:23.343Z,4.07
2023-03-08T09:37:56.644Z,3.75
2023-03-08T09:40:48.263Z,3.35
2023-03-08T09:43:43.353Z,3.08
2023-03-08T09:46:28.969Z,4.03
2023-03-08T09:49:05.868Z,3.13
2023-03-08T09:51:45.972Z,3.65
2023-03-08T09:54:24.241Z,3.95
2023-03-08T09:56:57.072Z,2.42
2023-03-08T09:59:49.628Z,3.50
2023-03-08T10:02:56.507Z,3.38
2023-03-08T10:06:13.228Z,3.30
2023-03-08T10:09:25.670Z,2.95
2023-03-08T10:12:13.294Z,3.45
2023-03-08T10:14:54.542Z,3.08
2023-03-08T10:18:02.476Z,4.15
2023-03-08T10:20:38.041Z,4.18
2023-03-08T10:23:23.038Z,5.65
2023-03-08T10:25:55.720Z,4.18
2023-03-08T10:28:28.737Z,5.47
2023-03-08T10:31:04.824Z,6.25
2023-03-08T10:33:37.504Z,5.05
2023-03-08T10:36:23.737Z,5.35
2023-03-08T10:39:04.873Z,6.00
2023-03-08T10:41:58.196Z,6.13
2023-03-08T10:44:51.868Z,5.28
2023-03-08T10:47:32.519Z,5.45
2023-03-08T10:50:37.514Z,4.80
2023-03-08T10:53:20.748Z,5.07
2023-03-08T10:55:53.355Z,5.05
2023-03-08T10:58:39.181Z,4.70
2023-03-08T11:01:35.101Z,5.35
2023-03-08T11:06:52.678Z,4.72
2023-03-08T11:09:36.857Z,5.13
2023-03-08T11:12:26.291Z,5.90
2023-03-08T11:17:39.484Z,4.22
2023-03-08T11:20:24.817Z,4.65
2023-03-08T11:23:30.545Z,4.22
2023-03-08T11:26:40.730Z,4.43
2023-03-08T11:30:07.480Z,5.03
2023-03-08T11:33:05.173Z,4.32
2023-03-08T11:36:16.262Z,4.60
2023-03-08T11:39:04.724Z,4.45
2023-03-08T11:42:24.216Z,4.50
2023-03-08T11:45:20.935Z,4.05
2023-03-08T11:48:12.561Z,3.70
2023-03-08T11:51:16.656Z,3.72
2023-03-08T11:54:23.558Z,4.00
2023-03-08T11:57:10.510Z,3.70
2023-03-08T11:59:56.848Z,2.83
2023-03-08T12:02:39.980Z,4.25
2023-03-08T12:05:21.219Z,3.33
2023-03-08T12:08:05.587Z,3.70
2023-03-08T12:10:40.997Z,4.15
2023-03-08T12:13:40.882Z,2.70
2023-03-08T12:16:37.821Z,3.33
2023-03-08T12:19:31.862Z,2.90
2023-03-08T12:22:33.461Z,3.00
2023-03-08T12:25:13.122Z,3.20
2023-03-08T12:27:55.299Z,3.00
2023-03-08T12:31:07.866Z,2.70
2023-03-08T12:33:47.829Z,2.72
2023-03-08T12:36:24.943Z,2.97
2023-03-08T12:39:08.663Z,3.08
2023-03-08T12:41:41.322Z,3.05
2023-03-08T12:44:26.985Z,3.53
2023-03-08T12:47:22.957Z,2.75
2023-03-08T12:49:56.716Z,3.30
2023-03-08T12:52:36.880Z,3.72
2023-03-08T12:55:31.569Z,3.38
2023-03-08T12:58:04.790Z,2.85
2023-03-08T13:00:39.344Z,2.95
2023-03-08T13:03:14.906Z,3.25
2023-03-08T13:05:49.896Z,3.38
2023-03-08T13:08:43.112Z,4.20
2023-03-08T13:11:17.676Z,4.20
2023-03-08T13:13:57.365Z,4.85
2023-03-08T13:16:40.000Z,4.15
2023-03-08T13:19:15.575Z,4.57
2023-03-08T13:21:57.902Z,4.47
2023-03-08T13:25:35.057Z,4.25
2023-03-08T13:28:26.362Z,4.32
2023-03-08T13:31:11.088Z,4.63
2023-03-08T13:33:55.341Z,5.15
2023-03-08T13:36:32.555Z,4.60
2023-03-08T13:39:21.003Z,5.45
2023-03-08T13:42:06.629Z,4.45
2023-03-08T13:44:39.604Z,3.88
2023-03-08T13:47:35.377Z,4.55
2023-03-08T13:50:16.809Z,4.93
2023-03-08T13:52:49.954Z,4.75
2023-03-08T13:55:35.093Z,5.20
2023-03-08T13:58:23.079Z,5.18
2023-03-08T14:01:13.493Z,5.53
2023-03-08T14:03:47.358Z,4.88
2023-03-08T14:06:29.857Z,4.68
2023-03-08T14:09:03.616Z,4.82
2023-03-08T14:11:42.058Z,4.78
2023-03-08T14:14:28.976Z,4.90
2023-03-08T14:17:02.700Z,4.70
2023-03-08T14:19:42.440Z,5.22
2023-03-08T14:22:32.261Z,4.75
2023-03-08T14:25:39.353Z,4.65
2023-03-08T14:28:39.846Z,5.00
2023-03-08T14:31:28.693Z,4.70
2023-03-08T14:34:04.549Z,4.70
2023-03-08T14:36:46.486Z,4.97
2023-03-08T14:39:19.934Z,5.60
2023-03-08T14:41:53.991Z,5.43
2023-03-08T14:44:29.495Z,4.80
2023-03-08T14:47:25.153Z,4.97
2023-03-08T14:50:08.705Z,5.28
2023-03-08T14:52:49.920Z,4.40
2023-03-08T14:55:27.677Z,5.47
2023-03-08T14:58:12.942Z,5.43
2023-03-08T15:00:51.667Z,4.90
2023-03-08T15:03:25.317Z,5.28
2023-03-08T15:06:01.472Z,5.28
2023-03-08T15:08:34.365Z,5.38
2023-03-08T15:11:08.133Z,5.85
2023-03-08T15:13:47.927Z,4.95
2023-03-08T15:16:20.704Z,5.55
2023-03-08T15:18:53.472Z,6.43
2023-03-08T15:21:29.618Z,6.05
2023-03-08T15:24:04.080Z,5.93
2023-03-08T15:26:37.212Z,5.38
2023-03-08T15:29:30.094Z,5.95
2023-03-08T15:32:02.883Z,5.10
2023-03-08T15:34:37.964Z,5.78
2023-03-08T15:37:14.802Z,5.10
2023-03-08T15:39:50.495Z,5.80
2023-03-08T15:42:26.519Z,5.90
2023-03-08T15:44:59.475Z,6.53
2023-03-08T15:47:32.278Z,4.95
2023-03-08T15:50:12.920Z,4.55
2023-03-08T15:52:45.901Z,4.45
2023-03-08T15:55:18.771Z,5.25
2023-03-08T15:57:55.358Z,4.13
2023-03-08T16:00:28.977Z,4.85
2023-03-08T16:03:03.377Z,4.97
2023-03-08T16:05:38.672Z,4.32
2023-03-08T16:08:13.877Z,5.57
2023-03-08T16:10:50.016Z,4.93
2023-03-08T16:13:22.762Z,4.97
2023-03-08T16:16:02.574Z,5.60
2023-03-08T16:18:37.181Z,4.85
2023-03-08T16:21:12.932Z,5.57
2023-03-08T16:23:45.697Z,5.75
2023-03-08T16:26:18.957Z,5.90
2023-03-08T16:28:51.956Z,5.50
2023-03-08T16:31:24.805Z,4.93
2023-03-08T16:33:57.697Z,4.28
2023-03-08T16:36:30.502Z,4.82
2023-03-08T16:39:06.125Z,5.00
2023-03-08T16:41:40.939Z,5.80
2023-03-08T16:44:28.511Z,4.55
2023-03-08T16:47:01.266Z,3.88
2023-03-08T16:49:35.604Z,4.57
2023-03-08T16:52:08.559Z,4.53
2023-03-08T16:54:44.294Z,4.65
2023-03-08T16:57:19.698Z,5.40
2023-03-08T16:59:52.713Z,4.63
2023-03-08T17:02:25.660Z,5.03
2023-03-08T17:04:58.379Z,3.45
2023-03-08T17:07:31.401Z,3.55
2023-03-08T17:10:05.921Z,3.88
2023-03-08T17:12:38.590Z,3.85
2023-03-08T17:15:11.980Z,3.92
2023-03-08T17:17:44.796Z,4.13
2023-03-08T17:20:17.601Z,4.53
2023-03-08T17:22:50.210Z,4.28
2023-03-08T17:25:22.903Z,3.42
2023-03-08T17:27:55.611Z,4.40
2023-03-08T17:30:28.771Z,3.90
2023-03-08T17:33:01.300Z,3.63
2023-03-08T17:35:35.026Z,3.85
2023-03-08T17:38:08.342Z,4.22
2023-03-08T17:40:41.179Z,4.78
2023-03-08T17:43:15.260Z,5.15
2023-03-08T17:46:04.806Z,4.05
2023-03-08T17:48:38.411Z,3.63
2023-03-08T17:51:18.765Z,3.90
2023-03-08T17:53:58.377Z,4.15
2023-03-08T17:56:38.813Z,3.65
2023-03-08T17:59:18.669Z,3.95
2023-03-08T18:01:51.305Z,4.45
2023-03-08T18:04:29.217Z,3.90
2023-03-08T18:07:09.552Z,4.32
2023-03-08T18:09:57.782Z,3.75
2023-03-08T18:12:33.986Z,4.13
2023-03-08T18:15:26.300Z,4.28
2023-03-08T18:18:11.769Z,3.72
2023-03-08T18:21:12.134Z,4.43
2023-03-08T18:23:51.640Z,3.40
2023-03-08T18:26:30.223Z,3.55
2023-03-08T18:29:04.641Z,4.97
2023-03-08T18:31:38.422Z,4.68
2023-03-08T18:34:14.436Z,5.15
2023-03-08T18:37:06.183Z,4.63
2023-03-08T18:39:38.844Z,3.97
2023-03-08T18:42:11.906Z,5.13
2023-03-08T18:44:48.406Z,5.18
2023-03-08T18:47:23.728Z,4.40
2023-03-08T18:49:56.431Z,4.55
2023-03-08T18:52:36.359Z,4.50
2023-03-08T18:55:15.826Z,4.93
2023-03-08T18:57:51.472Z,4.05
2023-03-08T19:00:26.287Z,4.30
2023-03-08T19:03:01.463Z,4.82
2023-03-08T19:05:39.484Z,5.70
2023-03-08T19:08:14.582Z,5.68
2023-03-08T19:10:47.509Z,6.25
2023-03-08T19:13:20.233Z,5.47
2023-03-08T19:16:01.815Z,4.38
2023-03-08T19:18:34.678Z,5.18
2023-03-08T19:21:20.999Z,5.30
2023-03-08T19:24:07.705Z,4.97
2023-03-08T19:26:51.405Z,5.05
2023-03-08T19:29:28.906Z,4.70
2023-03-08T19:32:14.043Z,5.38
2023-03-08T19:34:48.503Z,5.53
2023-03-08T19:37:29.499Z,4.65
2023-03-08T19:40:16.057Z,4.78
2023-03-08T19:43:01.408Z,5.53
2023-03-08T19:45:38.112Z,4.88
2023-03-08T19:48:34.763Z,5.05
2023-03-08T19:51:16.669Z,4.95
2023-03-08T19:55:01.044Z,5.45
2023-03-08T19:58:21.009Z,4.68
2023-03-08T20:01:53.590Z,5.53
2023-03-08T20:05:26.300Z,5.13
2023-03-08T20:09:02.116Z,3.80
2023-03-08T20:11:43.416Z,5.47
2023-03-08T20:14:49.479Z,5.28
2023-03-08T20:17:45.780Z,5.10
2023-03-08T20:20:30.527Z,5.20
2023-03-08T20:24:00.853Z,4.88
2023-03-08T20:26:44.019Z,5.35
2023-03-08T20:32:49.747Z,4.90
2023-03-08T20:35:47.752Z,5.10
2023-03-08T20:38:59.980Z,5.90
2023-03-08T20:41:36.595Z,4.97
2023-03-08T20:47:16.126Z,5.15
2023-03-08T20:49:57.358Z,5.57
2023-03-08T20:52:39.575Z,5.93
2023-03-08T20:55:16.448Z,5.90
2023-03-08T20:58:13.942Z,6.05
2023-03-08T21:00:49.360Z,5.68
2023-03-08T21:03:26.328Z,5.95
2023-03-08T21:06:16.358Z,5.50
2023-03-08T21:08:54.164Z,5.43
2023-03-08T21:11:30.795Z,5.18
2023-03-08T21:14:04.123Z,5.97
2023-03-08T21:16:36.920Z,6.15
2023-03-08T21:19:10.145Z,6.25
2023-03-08T21:21:45.544Z,5.57
2023-03-08T21:24:22.769Z,5.68
2023-03-08T21:26:55.454Z,7.03
2023-03-08T21:29:28.985Z,5.72
2023-03-08T21:32:01.703Z,6.30
2023-03-08T21:34:34.507Z,4.72
2023-03-08T21:37:07.152Z,6.57
2023-03-08T21:39:39.772Z,5.90
2023-03-08T21:42:15.036Z,6.18
2023-03-08T21:44:47.762Z,5.50
2023-03-08T21:47:20.418Z,5.63
2023-03-08T21:49:53.168Z,5.68
2023-03-08T21:52:25.859Z,5.93
2023-03-08T21:54:58.466Z,5.85
2023-03-08T21:57:33.939Z,6.50
2023-03-08T22:00:08.483Z,6.65
2023-03-08T22:02:44.982Z,5.72
2023-03-08T22:07:50.499Z,5.90
2023-03-08T22:10:23.129Z,6.38
2023-03-08T22:12:55.755Z,6.45
2023-03-08T22:15:28.560Z,6.22
2023-03-08T22:18:01.420Z,6.07
2023-03-08T22:20:34.058Z,6.75
2023-03-08T22:23:06.989Z,6.22
2023-03-08T22:25:39.604Z,6.57
2023-03-08T22:28:12.426Z,5.85
2023-03-08T22:30:45.083Z,6.63
2023-03-08T22:33:19.895Z,6.80
2023-03-08T22:35:52.627Z,6.78
2023-03-08T22:38:25.489Z,6.47
2023-03-08T22:40:58.210Z,6.38
2023-03-08T22:43:30.833Z,5.90
2023-03-08T22:46:13.259Z,5.85
2023-03-08T22:48:47.860Z,6.05
2023-03-08T22:51:23.294Z,6.07
2023-03-08T22:53:56.386Z,6.38
2023-03-08T22:56:30.386Z,5.18
2023-03-08T22:59:03.759Z,6.10
2023-03-08T23:01:37.136Z,6.68
2023-03-08T23:04:12.243Z,6.40
2023-03-08T23:06:44.983Z,6.72
2023-03-08T23:09:17.574Z,5.75
2023-03-08T23:11:50.442Z,6.20
2023-03-08T23:14:23.128Z,6.32
2023-03-08T23:16:55.751Z,7.00
2023-03-08T23:19:28.341Z,6.45
2023-03-08T23:22:01.562Z,6.78
2023-03-08T23:24:34.332Z,6.65
2023-03-08T23:27:07.050Z,6.32
2023-03-08T23:29:39.738Z,7.43
2023-03-08T23:32:17.567Z,4.55
2023-03-08T23:34:50.503Z,7.47
2023-03-08T23:37:23.388Z,7.07
2023-03-08T23:39:56.948Z,5.88
2023-03-08T23:42:29.607Z,7.10
2023-03-08T23:45:08.329Z,6.25
2023-03-08T23:47:41.220Z,7.10
2023-03-08T23:50:15.824Z,5.13
2023-03-08T23:52:48.672Z,5.35
2023-03-08T23:55:23.323Z,5.78
2023-03-08T23:57:58.065Z,6.55
